Terminal Aerodrome Forecast
Issued by NWS

Home | Current Version | Previous Version | Text Only | Print | Product List | Glossary Off
Versions: 1 2 3 4 5 6 7 8 9 10 11 12 13 14 15 16 17 18 19 20 21 22 23 24 25 26 27 28 29 30 31

000
FTUS43 KLOT 262331
TAFORD
TAF
KORD 262331Z 2700/2806 06006KT P6SM SCT150 BKN200
     FM270600 09005KT P6SM VCSH OVC060
     FM271000 11005KT 3SM SHRA VCTS OVC025CB
     FM271400 16007KT P6SM BKN025
     FM271700 20009KT P6SM SCT035 BKN200=

USA.gov is the U.S. government's official web portal to all federal, state and local government web resources and services.